Time;durP1;ratioP1;P1;durP2;ratioP2;P2;SDS_P1;SDS_P2;PMS_P1;PMS_P2;Temp;Humidity;BMP_temperature;BMP_pressure;BME280_temperature;BME280_humidity;BME280_pressure;Samples;Min_cycle;Max_cycle;Signal;HPM_P1;HPM_P2
2022/10/01 00:01:10;;;;;;;1.60;1.50;;;;;;;;;;5023888;28;20209;-82
2022/10/01 00:03:38;;;;;;;1.73;1.63;;;;;;;;;;5035646;28;20221;-82
2022/10/01 00:06:10;;;;;;;1.55;1.45;;;;;;;;;;5047484;28;20198;-82
2022/10/01 00:08:39;;;;;;;1.50;1.40;;;;;;;;;;5034967;28;20202;-82
2022/10/01 00:11:13;;;;;;;1.98;1.88;;;;;;;;;;5049916;28;20704;-81
2022/10/01 00:13:41;;;;;;;2.00;1.80;;;;;;;;;;5033759;28;20229;-81
2022/10/01 00:16:12;;;;;;;4.18;2.25;;;;;;;;;;5043310;28;20209;-81
2022/10/01 00:18:41;;;;;;;1.73;1.63;;;;;;;;;;5041851;28;20202;-81
2022/10/01 00:21:12;;;;;;;1.80;1.70;;;;;;;;;;5039756;28;20212;-82
2022/10/01 00:23:39;;;;;;;1.77;1.67;;;;;;;;;;5039799;28;20232;-82
2022/10/01 00:26:13;;;;;;;1.88;1.70;;;;;;;;;;5043460;28;20204;-81
2022/10/01 00:28:41;;;;;;;2.08;1.88;;;;;;;;;;5033951;28;20199;-82
2022/10/01 00:31:10;;;;;;;4.10;2.38;;;;;;;;;;5045849;28;20225;-83
2022/10/01 00:33:38;;;;;;;3.00;2.20;;;;;;;;;;5040793;28;20227;-82
2022/10/01 00:36:07;;;;;;;4.25;2.72;;;;;;;;;;5034527;28;20195;-82
2022/10/01 00:38:39;;;;;;;2.63;2.42;;;;;;;;;;5042435;28;20194;-82
2022/10/01 00:41:07;;;;;;;2.47;1.92;;;;;;;;;;5041681;28;20234;-81
2022/10/01 00:43:37;;;;;;;2.58;2.28;;;;;;;;;;5032996;28;20223;-83
2022/10/01 00:46:10;;;;;;;2.47;2.10;;;;;;;;;;5034820;28;20205;-82
2022/10/01 00:48:42;;;;;;;3.30;2.35;;;;;;;;;;5033466;28;20198;-82
2022/10/01 00:51:10;;;;;;;2.97;2.63;;;;;;;;;;5032677;28;20222;-82
2022/10/01 00:53:39;;;;;;;2.15;1.95;;;;;;;;;;5029812;28;20218;-82
2022/10/01 00:56:07;;;;;;;2.38;2.17;;;;;;;;;;5045704;28;20198;-81
2022/10/01 00:58:34;;;;;;;2.78;2.58;;;;;;;;;;5039240;28;20290;-82
2022/10/01 01:01:02;;;;;;;2.42;2.17;;;;;;;;;;5042193;28;20196;-81
2022/10/01 01:03:30;;;;;;;3.42;3.00;;;;;;;;;;5042035;28;20202;-81
2022/10/01 01:05:57;;;;;;;2.03;1.92;;;;;;;;;;5032543;28;20202;-83
2022/10/01 01:08:25;;;;;;;2.30;2.10;;;;;;;;;;5031669;28;20194;-81
2022/10/01 01:11:01;;;;;;;2.47;2.28;;;;;;;;;;5033618;28;20690;-82
2022/10/01 01:13:34;;;;;;;2.35;2.10;;;;;;;;;;5042554;28;20198;-82
2022/10/01 01:16:09;;;;;;;1.85;1.75;;;;;;;;;;5041477;28;20203;-83
2022/10/01 01:18:42;;;;;;;1.75;1.65;;;;;;;;;;5028581;28;20205;-81
2022/10/01 01:21:21;;;;;;;4.95;1.88;;;;;;;;;;5022285;28;20197;-82
2022/10/01 01:24:18;;;;;;;2.70;2.50;;;;;;;;;;5033618;28;20238;-82
2022/10/01 01:26:55;;;;;;;2.97;2.30;;;;;;;;;;5044872;28;20303;-81
2022/10/01 01:29:27;;;;;;;2.63;2.38;;;;;;;;;;5030272;28;20213;-82
2022/10/01 01:31:58;;;;;;;2.88;1.98;;;;;;;;;;5040500;28;20595;-82
2022/10/01 01:34:30;;;;;;;2.05;1.70;;;;;;;;;;5040051;28;20244;-81
2022/10/01 01:37:03;;;;;;;2.10;2.00;;;;;;;;;;5019970;28;20205;-83
2022/10/01 01:39:33;;;;;;;1.67;1.58;;;;;;;;;;5033089;28;20309;-81
2022/10/01 01:42:07;;;;;;;1.85;1.70;;;;;;;;;;5032529;28;20658;-81
2022/10/01 01:44:39;;;;;;;4.57;2.75;;;;;;;;;;5041686;28;20225;-82
2022/10/01 01:47:09;;;;;;;2.40;2.20;;;;;;;;;;5036275;28;20212;-83
2022/10/01 01:49:37;;;;;;;2.55;2.35;;;;;;;;;;5032858;28;20210;-82
2022/10/01 01:52:08;;;;;;;3.42;3.08;;;;;;;;;;5032118;28;20233;-82
2022/10/01 01:54:36;;;;;;;3.40;2.60;;;;;;;;;;5039682;28;20236;-81
2022/10/01 01:57:05;;;;;;;2.00;1.80;;;;;;;;;;5032345;28;20420;-81
2022/10/01 01:59:33;;;;;;;3.53;2.55;;;;;;;;;;5019207;28;20293;-82
2022/10/01 02:02:05;;;;;;;2.35;2.15;;;;;;;;;;5042022;28;20248;-83
2022/10/01 02:04:37;;;;;;;2.92;2.33;;;;;;;;;;5028943;28;20219;-82
2022/10/01 02:07:20;;;;;;;2.35;2.15;;;;;;;;;;5020472;28;20688;-81
2022/10/01 02:09:53;;;;;;;2.30;2.10;;;;;;;;;;5038586;28;20202;-81
2022/10/01 02:12:32;;;;;;;2.63;2.42;;;;;;;;;;5032698;28;20228;-82
2022/10/01 02:15:08;;;;;;;3.03;2.05;;;;;;;;;;5039713;28;20588;-81
2022/10/01 02:17:51;;;;;;;1.88;1.73;;;;;;;;;;5043644;28;20190;-82
2022/10/01 02:20:23;;;;;;;2.47;2.22;;;;;;;;;;5039633;28;20206;-81
2022/10/01 02:22:53;;;;;;;2.67;2.42;;;;;;;;;;5042902;28;20191;-81
2022/10/01 02:25:25;;;;;;;2.35;2.15;;;;;;;;;;5050915;28;20309;-81
2022/10/01 02:27:57;;;;;;;2.15;1.92;;;;;;;;;;5045843;28;20253;-82
2022/10/01 02:30:25;;;;;;;2.28;2.08;;;;;;;;;;5035993;28;20707;-82
2022/10/01 02:32:58;;;;;;;2.53;2.33;;;;;;;;;;5043824;28;20748;-82
2022/10/01 02:35:27;;;;;;;2.47;2.08;;;;;;;;;;5036418;28;20214;-81
2022/10/01 02:37:56;;;;;;;2.05;1.85;;;;;;;;;;5027529;28;20213;-82
2022/10/01 02:40:26;;;;;;;2.75;2.55;;;;;;;;;;5031716;28;20206;-82
2022/10/01 02:42:56;;;;;;;4.20;2.35;;;;;;;;;;5043634;28;20217;-83
2022/10/01 02:45:24;;;;;;;2.38;2.17;;;;;;;;;;5041760;28;20235;-83
2022/10/01 02:47:56;;;;;;;1.80;1.70;;;;;;;;;;5035566;28;20195;-82
2022/10/01 02:50:27;;;;;;;2.33;2.13;;;;;;;;;;5029543;28;20198;-81
2022/10/01 02:52:58;;;;;;;2.13;1.98;;;;;;;;;;5035727;28;20219;-81
2022/10/01 02:55:28;;;;;;;3.40;2.88;;;;;;;;;;5037941;28;20221;-81
2022/10/01 02:57:55;;;;;;;2.05;1.95;;;;;;;;;;5032491;28;20201;-81
2022/10/01 03:00:22;;;;;;;2.97;2.25;;;;;;;;;;5038325;28;20221;-84
2022/10/01 03:02:51;;;;;;;2.65;2.45;;;;;;;;;;5037196;28;20201;-82
2022/10/01 03:05:20;;;;;;;2.85;2.35;;;;;;;;;;5032924;28;20648;-82
2022/10/01 03:07:48;;;;;;;2.45;2.25;;;;;;;;;;5030614;28;20204;-82
2022/10/01 03:10:16;;;;;;;2.47;2.20;;;;;;;;;;5031053;28;20285;-82
2022/10/01 03:12:45;;;;;;;2.00;1.80;;;;;;;;;;5038578;28;20214;-82
2022/10/01 03:15:13;;;;;;;2.40;2.08;;;;;;;;;;5040927;28;20223;-84
2022/10/01 03:17:41;;;;;;;1.90;1.80;;;;;;;;;;5041831;28;20676;-82
2022/10/01 03:20:10;;;;;;;2.30;2.10;;;;;;;;;;5038285;28;20296;-84
2022/10/01 03:22:39;;;;;;;1.90;1.80;;;;;;;;;;5042293;28;20199;-83
2022/10/01 03:25:07;;;;;;;3.42;1.92;;;;;;;;;;5016327;28;20306;-82
2022/10/01 03:27:34;;;;;;;3.33;2.63;;;;;;;;;;5016747;28;20209;-82
2022/10/01 03:30:02;;;;;;;2.03;1.85;;;;;;;;;;5033315;28;20286;-82
2022/10/01 03:32:29;;;;;;;2.55;2.35;;;;;;;;;;5051265;28;20249;-83
2022/10/01 03:34:57;;;;;;;2.85;2.40;;;;;;;;;;5031258;28;20655;-84
2022/10/01 03:37:24;;;;;;;2.47;2.28;;;;;;;;;;5036245;28;20216;-82
2022/10/01 03:39:53;;;;;;;2.40;2.20;;;;;;;;;;5031767;28;20198;-81
2022/10/01 03:42:20;;;;;;;1.77;1.67;;;;;;;;;;5045514;28;20285;-80
2022/10/01 03:44:48;;;;;;;1.88;1.77;;;;;;;;;;5037470;28;20591;-80
2022/10/01 03:47:15;;;;;;;2.08;1.80;;;;;;;;;;5049366;28;20261;-81
2022/10/01 03:49:43;;;;;;;2.35;2.15;;;;;;;;;;5034292;28;20313;-79
2022/10/01 03:52:10;;;;;;;2.00;1.90;;;;;;;;;;5045778;28;20225;-80
2022/10/01 03:54:38;;;;;;;2.75;2.55;;;;;;;;;;5046390;28;20217;-80
2022/10/01 03:57:07;;;;;;;2.50;2.30;;;;;;;;;;5057287;28;20198;-80
2022/10/01 03:59:35;;;;;;;2.30;2.10;;;;;;;;;;5036162;28;20199;-80
2022/10/01 04:02:02;;;;;;;3.30;2.20;;;;;;;;;;5043033;28;20197;-81
2022/10/01 04:04:30;;;;;;;6.53;2.50;;;;;;;;;;5054892;28;20217;-81
2022/10/01 04:06:57;;;;;;;2.20;2.00;;;;;;;;;;5054551;28;20666;-80
2022/10/01 04:09:24;;;;;;;2.70;2.50;;;;;;;;;;5025642;28;20195;-81
2022/10/01 04:11:52;;;;;;;3.10;2.80;;;;;;;;;;5041078;28;20228;-82
2022/10/01 04:14:21;;;;;;;2.53;2.33;;;;;;;;;;5054696;28;20271;-80
2022/10/01 04:16:51;;;;;;;2.78;2.55;;;;;;;;;;5043174;28;20710;-81
2022/10/01 04:19:19;;;;;;;3.47;3.17;;;;;;;;;;5038797;28;20281;-81
2022/10/01 04:21:46;;;;;;;2.55;2.35;;;;;;;;;;5041258;28;20195;-83
2022/10/01 04:24:14;;;;;;;3.03;2.75;;;;;;;;;;5031892;28;20309;-83
2022/10/01 04:26:41;;;;;;;2.63;2.40;;;;;;;;;;5014834;28;20209;-82
2022/10/01 04:29:09;;;;;;;2.20;2.05;;;;;;;;;;5014690;28;20294;-84
2022/10/01 04:31:39;;;;;;;2.70;2.50;;;;;;;;;;5038893;28;20206;-85
2022/10/01 04:34:06;;;;;;;2.65;2.42;;;;;;;;;;5054814;28;20228;-84
2022/10/01 04:36:34;;;;;;;2.42;2.22;;;;;;;;;;5054444;28;20197;-84
2022/10/01 04:39:01;;;;;;;3.47;2.53;;;;;;;;;;5033114;28;20195;-84
2022/10/01 04:41:29;;;;;;;2.60;2.40;;;;;;;;;;5031150;28;20301;-85
2022/10/01 04:43:58;;;;;;;2.75;2.55;;;;;;;;;;5053962;28;20209;-84
2022/10/01 04:46:25;;;;;;;2.38;2.17;;;;;;;;;;5044106;28;20226;-86
2022/10/01 04:48:54;;;;;;;2.83;2.53;;;;;;;;;;5034439;28;20629;-83
2022/10/01 04:51:21;;;;;;;2.72;2.30;;;;;;;;;;5036127;28;20201;-86
2022/10/01 04:53:49;;;;;;;4.88;2.78;;;;;;;;;;5038816;28;20318;-84
2022/10/01 04:56:17;;;;;;;2.60;2.40;;;;;;;;;;5055014;28;20279;-82
2022/10/01 04:58:44;;;;;;;2.88;2.63;;;;;;;;;;5037887;28;20230;-85
2022/10/01 05:01:12;;;;;;;2.97;2.78;;;;;;;;;;5032890;28;20576;-86
2022/10/01 05:03:40;;;;;;;3.10;2.67;;;;;;;;;;5037108;28;20377;-84
2022/10/01 05:06:08;;;;;;;2.53;2.33;;;;;;;;;;5034940;28;20430;-85
2022/10/01 05:08:37;;;;;;;3.35;2.25;;;;;;;;;;5032708;28;20281;-86
2022/10/01 05:11:04;;;;;;;3.95;3.28;;;;;;;;;;5038770;28;20678;-84
2022/10/01 05:13:32;;;;;;;3.13;2.92;;;;;;;;;;5037954;28;20236;-85
2022/10/01 05:15:59;;;;;;;3.08;2.88;;;;;;;;;;5035423;28;20309;-83
2022/10/01 05:18:27;;;;;;;3.25;2.95;;;;;;;;;;5038804;28;20229;-84
2022/10/01 05:20:54;;;;;;;3.58;3.33;;;;;;;;;;5041307;28;20284;-83
2022/10/01 05:23:23;;;;;;;2.28;2.08;;;;;;;;;;5038142;28;20289;-85
2022/10/01 05:25:51;;;;;;;3.55;2.80;;;;;;;;;;5040353;28;20292;-83
2022/10/01 05:28:18;;;;;;;2.75;2.53;;;;;;;;;;5032660;28;20756;-84
2022/10/01 05:30:45;;;;;;;4.07;2.60;;;;;;;;;;5033121;28;20289;-85
2022/10/01 05:33:13;;;;;;;2.85;2.65;;;;;;;;;;5045063;28;20233;-83
2022/10/01 05:35:41;;;;;;;3.05;2.75;;;;;;;;;;5036892;28;20241;-84
2022/10/01 05:38:09;;;;;;;2.95;2.72;;;;;;;;;;5031863;28;20202;-85
2022/10/01 05:40:37;;;;;;;2.60;2.40;;;;;;;;;;5039790;28;20301;-83
2022/10/01 05:43:05;;;;;;;2.70;2.50;;;;;;;;;;5046938;28;20201;-83
2022/10/01 05:45:33;;;;;;;4.20;2.78;;;;;;;;;;5042124;28;20655;-85
2022/10/01 05:48:02;;;;;;;3.10;2.80;;;;;;;;;;5043971;28;20189;-84
2022/10/01 05:50:32;;;;;;;2.53;2.33;;;;;;;;;;5031141;28;20194;-85
2022/10/01 05:53:00;;;;;;;2.65;2.45;;;;;;;;;;5044342;28;20214;-85
2022/10/01 05:55:32;;;;;;;3.90;2.55;;;;;;;;;;5043338;28;20220;-87
2022/10/01 05:58:03;;;;;;;2.70;2.50;;;;;;;;;;5026587;28;20199;-86
2022/10/01 06:00:33;;;;;;;2.75;2.55;;;;;;;;;;5022287;28;20285;-85
2022/10/01 06:03:02;;;;;;;2.95;2.53;;;;;;;;;;5041321;28;20633;-86
2022/10/01 06:05:31;;;;;;;2.30;2.10;;;;;;;;;;5032882;28;20229;-86
2022/10/01 06:07:59;;;;;;;3.65;2.30;;;;;;;;;;5034120;28;20206;-84
2022/10/01 06:10:29;;;;;;;1.95;1.85;;;;;;;;;;5031571;28;20650;-86
2022/10/01 06:13:01;;;;;;;2.38;2.20;;;;;;;;;;5041738;28;20582;-86
2022/10/01 06:15:29;;;;;;;4.28;3.05;;;;;;;;;;5032479;28;20221;-85
2022/10/01 06:18:01;;;;;;;3.03;2.75;;;;;;;;;;5045052;28;20212;-85
2022/10/01 06:20:28;;;;;;;2.53;2.33;;;;;;;;;;5025705;28;20202;-84
2022/10/01 06:22:57;;;;;;;2.97;2.67;;;;;;;;;;5032693;28;20633;-85
2022/10/01 06:25:27;;;;;;;2.20;2.00;;;;;;;;;;5030347;28;20222;-85
2022/10/01 06:27:56;;;;;;;2.50;2.30;;;;;;;;;;5033754;28;20233;-86
2022/10/01 06:30:26;;;;;;;2.08;1.95;;;;;;;;;;5023582;28;20205;-84
2022/10/01 06:32:54;;;;;;;2.28;1.92;;;;;;;;;;5044076;28;20717;-83
2022/10/01 06:35:21;;;;;;;2.05;1.95;;;;;;;;;;5041356;28;20245;-84
2022/10/01 06:37:48;;;;;;;2.50;2.30;;;;;;;;;;5043430;28;20266;-82
2022/10/01 06:40:16;;;;;;;4.30;3.10;;;;;;;;;;5023651;28;20225;-84
2022/10/01 06:42:48;;;;;;;2.20;2.00;;;;;;;;;;5042000;28;20684;-85
2022/10/01 06:45:16;;;;;;;3.22;1.85;;;;;;;;;;5049144;28;20237;-86
2022/10/01 06:47:45;;;;;;;2.85;1.90;;;;;;;;;;5044293;28;20221;-85
2022/10/01 06:50:13;;;;;;;2.38;2.00;;;;;;;;;;5036331;28;20290;-84
2022/10/01 06:52:48;;;;;;;2.03;1.92;;;;;;;;;;5032786;28;20297;-85
2022/10/01 06:55:15;;;;;;;1.90;1.58;;;;;;;;;;5047334;28;20299;-85
2022/10/01 06:57:43;;;;;;;2.00;1.90;;;;;;;;;;5032007;28;20206;-84
2022/10/01 07:00:12;;;;;;;1.52;1.42;;;;;;;;;;5041689;28;20194;-83
2022/10/01 07:02:40;;;;;;;2.22;2.03;;;;;;;;;;5045627;28;20199;-84
2022/10/01 07:05:09;;;;;;;1.95;1.85;;;;;;;;;;5049618;28;20306;-84
2022/10/01 07:07:38;;;;;;;1.70;1.60;;;;;;;;;;5044989;28;20717;-84
2022/10/01 07:10:09;;;;;;;1.83;1.50;;;;;;;;;;5036969;28;20198;-85
2022/10/01 07:12:37;;;;;;;2.00;1.90;;;;;;;;;;5033097;28;20228;-84
2022/10/01 07:15:06;;;;;;;1.60;1.40;;;;;;;;;;5031229;28;20230;-83
2022/10/01 07:17:34;;;;;;;1.48;1.38;;;;;;;;;;5031160;28;20226;-84
2022/10/01 07:20:01;;;;;;;1.80;1.70;;;;;;;;;;5025775;28;20206;-84
2022/10/01 07:22:31;;;;;;;1.63;1.52;;;;;;;;;;5022683;28;20191;-85
2022/10/01 07:24:58;;;;;;;1.90;1.80;;;;;;;;;;5030330;28;20240;-85
2022/10/01 07:27:26;;;;;;;1.60;1.50;;;;;;;;;;5045029;28;20213;-86
2022/10/01 07:29:57;;;;;;;1.70;1.60;;;;;;;;;;5019290;28;20641;-81
2022/10/01 07:32:25;;;;;;;1.55;1.45;;;;;;;;;;5029146;28;20206;-80
2022/10/01 07:34:52;;;;;;;1.50;1.40;;;;;;;;;;5043704;28;20648;-82
2022/10/01 07:37:20;;;;;;;3.35;1.70;;;;;;;;;;5033938;28;20286;-81
2022/10/01 07:39:49;;;;;;;1.60;1.50;;;;;;;;;;5034796;28;20201;-83
2022/10/01 07:42:16;;;;;;;1.50;1.40;;;;;;;;;;5029794;28;20209;-84
2022/10/01 07:44:44;;;;;;;1.92;1.77;;;;;;;;;;5037185;28;20312;-82
2022/10/01 07:47:11;;;;;;;1.42;1.33;;;;;;;;;;5050324;28;20598;-82
2022/10/01 07:49:39;;;;;;;1.40;1.30;;;;;;;;;;5041963;28;20194;-84
2022/10/01 07:52:06;;;;;;;2.25;2.10;;;;;;;;;;5032475;28;20198;-85
2022/10/01 07:54:34;;;;;;;1.60;1.50;;;;;;;;;;5032875;28;20230;-83
2022/10/01 07:57:03;;;;;;;1.38;1.30;;;;;;;;;;5037591;28;20300;-83
2022/10/01 07:59:30;;;;;;;1.17;1.17;;;;;;;;;;5036911;28;20281;-82
2022/10/01 08:01:58;;;;;;;1.10;1.10;;;;;;;;;;5035469;28;20194;-84
2022/10/01 08:07:10;;;;;;;0.90;0.90;;;;;;;;;;5019227;28;20213;-84
2022/10/01 08:09:38;;;;;;;1.35;1.25;;;;;;;;;;5037736;28;20232;-81
2022/10/01 08:12:07;;;;;;;1.10;1.10;;;;;;;;;;5031124;28;20206;-87
2022/10/01 08:14:35;;;;;;;1.20;1.20;;;;;;;;;;5031709;28;20333;-83
2022/10/01 08:17:02;;;;;;;0.90;0.90;;;;;;;;;;5041848;28;20301;-83
2022/10/01 08:19:30;;;;;;;1.30;1.25;;;;;;;;;;5020432;28;20249;-85
2022/10/01 08:21:57;;;;;;;1.15;1.15;;;;;;;;;;5032740;28;20637;-85
2022/10/01 08:24:25;;;;;;;0.90;0.90;;;;;;;;;;5037563;28;20301;-81
2022/10/01 08:26:54;;;;;;;1.20;1.20;;;;;;;;;;5017404;28;20261;-82
2022/10/01 08:29:23;;;;;;;2.20;1.20;;;;;;;;;;5022491;28;20195;-83
2022/10/01 08:31:51;;;;;;;1.30;1.20;;;;;;;;;;5038365;28;20269;-83
2022/10/01 08:34:18;;;;;;;1.20;1.10;;;;;;;;;;5033852;28;20226;-83
2022/10/01 08:36:49;;;;;;;0.80;0.80;;;;;;;;;;5028684;28;20270;-81
2022/10/01 08:39:17;;;;;;;0.80;0.80;;;;;;;;;;5039710;28;20208;-81
2022/10/01 08:41:52;;;;;;;1.58;1.50;;;;;;;;;;5038100;28;20278;-83
2022/10/01 08:44:26;;;;;;;0.90;0.90;;;;;;;;;;5013929;28;20214;-84
2022/10/01 08:46:55;;;;;;;0.90;0.90;;;;;;;;;;5028966;28;20210;-85
2022/10/01 08:49:26;;;;;;;0.70;0.70;;;;;;;;;;5038930;28;20210;-84
2022/10/01 08:51:57;;;;;;;0.80;0.80;;;;;;;;;;5033357;28;20199;-86
2022/10/01 08:54:32;;;;;;;0.80;0.80;;;;;;;;;;5023982;28;20233;-83
2022/10/01 08:57:02;;;;;;;0.70;0.70;;;;;;;;;;5034715;28;20206;-84
2022/10/01 08:59:44;;;;;;;0.85;0.85;;;;;;;;;;5041768;28;20209;-84
2022/10/01 09:02:24;;;;;;;0.82;0.82;;;;;;;;;;5039559;28;20206;-85
2022/10/01 09:04:54;;;;;;;0.80;0.80;;;;;;;;;;5033256;28;20678;-83
2022/10/01 09:07:41;;;;;;;0.50;0.50;;;;;;;;;;5036424;28;20731;-84
2022/10/01 09:10:23;;;;;;;0.80;0.80;;;;;;;;;;5018288;28;20212;-84
2022/10/01 09:13:05;;;;;;;0.57;0.57;;;;;;;;;;5030983;28;20338;-84
2022/10/01 09:15:41;;;;;;;0.98;0.98;;;;;;;;;;5018131;28;20229;-87
2022/10/01 09:18:18;;;;;;;0.80;0.80;;;;;;;;;;5034473;28;20555;-82
2022/10/01 09:20:51;;;;;;;0.70;0.70;;;;;;;;;;5033373;28;20678;-83
2022/10/01 09:23:23;;;;;;;0.95;0.80;;;;;;;;;;5032825;28;20206;-82
2022/10/01 09:25:52;;;;;;;0.60;0.60;;;;;;;;;;5033669;28;20198;-82
2022/10/01 09:28:22;;;;;;;0.73;0.73;;;;;;;;;;5043732;28;20194;-82
2022/10/01 09:30:55;;;;;;;0.70;0.70;;;;;;;;;;5046275;28;20209;-82
2022/10/01 09:33:33;;;;;;;0.90;0.90;;;;;;;;;;5083355;27;1740611;-84
2022/10/01 09:36:08;;;;;;;0.63;0.63;;;;;;;;;;5119220;28;20195;-86
2022/10/01 09:38:40;;;;;;;0.73;0.73;;;;;;;;;;5121301;28;20191;-86
2022/10/01 09:41:09;;;;;;;0.65;0.65;;;;;;;;;;5130439;28;20205;-85
2022/10/01 09:43:39;;;;;;;0.70;0.70;;;;;;;;;;5131358;28;20298;-83
2022/10/01 09:46:12;;;;;;;0.60;0.60;;;;;;;;;;5130785;28;20203;-85
2022/10/01 09:48:45;;;;;;;0.75;0.75;;;;;;;;;;5131068;28;20654;-84
2022/10/01 09:51:17;;;;;;;1.15;0.80;;;;;;;;;;5130525;28;20206;-84
2022/10/01 09:53:51;;;;;;;0.60;0.60;;;;;;;;;;5130482;28;20587;-84
2022/10/01 09:56:24;;;;;;;0.55;0.55;;;;;;;;;;5130235;28;20195;-84
2022/10/01 09:58:57;;;;;;;1.73;0.65;;;;;;;;;;5129914;28;20209;-85
2022/10/01 10:01:34;;;;;;;0.50;0.50;;;;;;;;;;5130124;28;20203;-85
2022/10/01 10:04:03;;;;;;;0.50;0.50;;;;;;;;;;5129958;28;20219;-85
2022/10/01 10:06:32;;;;;;;0.98;0.98;;;;;;;;;;5129995;28;20290;-85
2022/10/01 10:09:00;;;;;;;0.70;0.70;;;;;;;;;;5129565;28;20285;-85
2022/10/01 10:11:30;;;;;;;0.80;0.80;;;;;;;;;;5114002;28;20203;-85
2022/10/01 10:13:59;;;;;;;0.77;0.77;;;;;;;;;;5116163;28;20215;-84
2022/10/01 10:16:28;;;;;;;0.70;0.70;;;;;;;;;;5129963;28;20199;-84
2022/10/01 10:19:01;;;;;;;0.60;0.60;;;;;;;;;;5129429;28;20195;-85
2022/10/01 10:21:33;;;;;;;0.75;0.75;;;;;;;;;;5129716;28;20195;-85
2022/10/01 10:24:04;;;;;;;0.95;0.80;;;;;;;;;;5129405;28;20214;-86
2022/10/01 10:26:33;;;;;;;0.52;0.52;;;;;;;;;;5129452;28;20595;-85
2022/10/01 10:29:03;;;;;;;0.90;0.85;;;;;;;;;;5129392;28;20206;-85
2022/10/01 10:31:38;;;;;;;1.40;0.90;;;;;;;;;;5129318;28;20209;-85
2022/10/01 10:34:08;;;;;;;0.70;0.70;;;;;;;;;;5129701;28;20213;-86
2022/10/01 10:36:37;;;;;;;0.68;0.68;;;;;;;;;;5129386;28;20292;-85
2022/10/01 10:39:06;;;;;;;0.50;0.50;;;;;;;;;;5128474;28;20282;-85
2022/10/01 10:41:34;;;;;;;0.50;0.50;;;;;;;;;;5112743;28;20458;-85
2022/10/01 10:44:05;;;;;;;0.50;0.50;;;;;;;;;;5099530;28;20303;-86
2022/10/01 10:46:35;;;;;;;0.68;0.68;;;;;;;;;;5095247;28;20290;-85
2022/10/01 10:49:17;;;;;;;0.40;0.40;;;;;;;;;;5094600;28;20567;-85
2022/10/01 10:51:52;;;;;;;1.17;0.52;;;;;;;;;;5094690;28;20207;-85
2022/10/01 10:54:25;;;;;;;0.55;0.55;;;;;;;;;;5094890;28;20238;-85
2022/10/01 10:57:01;;;;;;;0.70;0.70;;;;;;;;;;5094923;28;20253;-86
2022/10/01 10:59:31;;;;;;;1.77;0.60;;;;;;;;;;5094349;28;20200;-85
2022/10/01 11:02:00;;;;;;;0.50;0.50;;;;;;;;;;5094527;28;20592;-84
2022/10/01 11:04:39;;;;;;;0.52;0.52;;;;;;;;;;5094806;28;20224;-85
2022/10/01 11:07:09;;;;;;;0.85;0.60;;;;;;;;;;5094772;28;20210;-85
2022/10/01 11:09:54;;;;;;;0.50;0.50;;;;;;;;;;5094286;28;20586;-86
2022/10/01 11:12:37;;;;;;;0.60;0.60;;;;;;;;;;5095904;28;20699;-86
2022/10/01 11:15:37;;;;;;;0.63;0.57;;;;;;;;;;5112115;28;20247;-86
2022/10/01 11:18:29;;;;;;;0.40;0.40;;;;;;;;;;5114584;28;20207;-85
2022/10/01 11:21:18;;;;;;;0.32;0.32;;;;;;;;;;5114730;28;20286;-88
2022/10/01 11:24:05;;;;;;;0.50;0.50;;;;;;;;;;5114749;28;20227;-87
2022/10/01 11:26:44;;;;;;;0.52;0.52;;;;;;;;;;5114928;28;20207;-87
2022/10/01 11:29:26;;;;;;;0.70;0.70;;;;;;;;;;5114218;28;20223;-87
2022/10/01 11:32:04;;;;;;;0.40;0.40;;;;;;;;;;5114797;28;20299;-86
2022/10/01 11:34:55;;;;;;;0.60;0.60;;;;;;;;;;5114297;28;20233;-87
2022/10/01 11:37:37;;;;;;;0.50;0.47;;;;;;;;;;5114310;28;20200;-86
2022/10/01 11:40:16;;;;;;;3.38;0.65;;;;;;;;;;5110292;28;20739;-85
2022/10/01 11:42:44;;;;;;;0.43;0.43;;;;;;;;;;5094325;28;20192;-86
2022/10/01 11:45:20;;;;;;;0.63;0.63;;;;;;;;;;5093876;28;20252;-86
2022/10/01 11:47:51;;;;;;;0.60;0.60;;;;;;;;;;5093695;28;20659;-86
2022/10/01 11:50:20;;;;;;;0.50;0.50;;;;;;;;;;5093565;28;20291;-86
2022/10/01 11:52:53;;;;;;;0.38;0.38;;;;;;;;;;5093608;28;20703;-84
2022/10/01 12:01:11;;;;;;;0.50;0.50;;;;;;;;;;5093713;28;20207;-84
2022/10/01 12:03:55;;;;;;;0.65;0.65;;;;;;;;;;5093466;28;20222;-85
2022/10/01 12:06:27;;;;;;;0.50;0.50;;;;;;;;;;5093625;28;20196;-87
2022/10/01 12:09:00;;;;;;;0.85;0.85;;;;;;;;;;5093299;28;20675;-87
2022/10/01 12:11:35;;;;;;;0.50;0.50;;;;;;;;;;5092531;28;20420;-86
2022/10/01 12:14:06;;;;;;;0.40;0.40;;;;;;;;;;5093283;28;20228;-86
2022/10/01 12:16:44;;;;;;;0.95;0.90;;;;;;;;;;5093487;28;20203;-84
2022/10/01 12:19:17;;;;;;;1.45;1.25;;;;;;;;;;5092885;28;20204;-84
2022/10/01 12:21:49;;;;;;;1.67;1.25;;;;;;;;;;5093373;28;20284;-85
2022/10/01 12:24:20;;;;;;;1.00;1.00;;;;;;;;;;5093254;28;20242;-86
2022/10/01 12:27:02;;;;;;;0.73;0.73;;;;;;;;;;5093413;28;20200;-86
2022/10/01 12:29:38;;;;;;;1.35;1.25;;;;;;;;;;5092751;28;20284;-86
2022/10/01 12:32:14;;;;;;;1.20;1.13;;;;;;;;;;5093243;28;20222;-85
2022/10/01 12:34:52;;;;;;;2.13;1.90;;;;;;;;;;5092965;28;20230;-86
2022/10/01 12:37:34;;;;;;;1.67;1.58;;;;;;;;;;5093160;28;20208;-86
2022/10/01 12:40:20;;;;;;;1.58;1.40;;;;;;;;;;5092560;28;20478;-86
2022/10/01 12:43:36;;;;;;;1.35;1.25;;;;;;;;;;5092986;28;20283;-86
2022/10/01 12:46:13;;;;;;;1.05;1.00;;;;;;;;;;5073903;28;20715;-86
2022/10/01 12:48:47;;;;;;;1.20;0.95;;;;;;;;;;5092805;28;20562;-86
2022/10/01 12:51:40;;;;;;;0.80;0.80;;;;;;;;;;5092668;28;20664;-86
2022/10/01 12:54:38;;;;;;;0.80;0.80;;;;;;;;;;5091526;28;20234;-85
2022/10/01 12:57:18;;;;;;;0.50;0.50;;;;;;;;;;5092879;28;20625;-85
2022/10/01 13:00:02;;;;;;;0.60;0.60;;;;;;;;;;5092454;28;20200;-86
2022/10/01 13:02:57;;;;;;;0.50;0.50;;;;;;;;;;5092518;28;20204;-86
2022/10/01 13:05:31;;;;;;;1.02;1.02;;;;;;;;;;5092603;28;20221;-86
2022/10/01 13:08:14;;;;;;;1.02;0.70;;;;;;;;;;5092240;28;20678;-85
2022/10/01 13:10:51;;;;;;;0.70;0.70;;;;;;;;;;5101993;28;20554;-83
2022/10/01 13:13:22;;;;;;;0.52;0.52;;;;;;;;;;5112287;28;20298;-83
2022/10/01 13:15:57;;;;;;;0.57;0.57;;;;;;;;;;5113823;28;20191;-86
2022/10/01 13:18:37;;;;;;;0.40;0.40;;;;;;;;;;5112598;28;20637;-86
2022/10/01 13:21:11;;;;;;;1.45;0.77;;;;;;;;;;5112483;28;20206;-86
2022/10/01 13:23:45;;;;;;;0.70;0.68;;;;;;;;;;5112605;28;20250;-85
2022/10/01 13:26:17;;;;;;;0.60;0.60;;;;;;;;;;5112577;28;20203;-85
2022/10/01 13:29:00;;;;;;;1.58;0.60;;;;;;;;;;5112569;28;20686;-85
2022/10/01 13:31:40;;;;;;;0.50;0.50;;;;;;;;;;5112490;28;20206;-86
2022/10/01 13:34:31;;;;;;;0.50;0.50;;;;;;;;;;5112365;28;20227;-86
2022/10/01 13:37:31;;;;;;;1.15;0.40;;;;;;;;;;5112718;28;20287;-86
2022/10/01 13:39:59;;;;;;;0.70;0.70;;;;;;;;;;5108885;28;20299;-85
2022/10/01 13:42:29;;;;;;;0.60;0.60;;;;;;;;;;5091920;28;20239;-85
2022/10/01 13:44:59;;;;;;;0.57;0.52;;;;;;;;;;5091896;28;20299;-86
2022/10/01 13:47:28;;;;;;;0.40;0.40;;;;;;;;;;5092245;28;20234;-86
2022/10/01 13:49:59;;;;;;;2.33;1.02;;;;;;;;;;5091815;28;20579;-86
2022/10/01 13:52:27;;;;;;;0.40;0.40;;;;;;;;;;5092139;28;20210;-86
2022/10/01 13:54:56;;;;;;;0.55;0.50;;;;;;;;;;5091901;28;20228;-86
2022/10/01 13:57:30;;;;;;;0.47;0.47;;;;;;;;;;5092020;28;20204;-86
2022/10/01 14:00:06;;;;;;;0.38;0.38;;;;;;;;;;5092005;28;20203;-86
2022/10/01 14:02:37;;;;;;;0.73;0.73;;;;;;;;;;5092307;28;20253;-86
2022/10/01 14:05:29;;;;;;;0.68;0.63;;;;;;;;;;5091996;28;20226;-86
2022/10/01 14:08:09;;;;;;;0.47;0.47;;;;;;;;;;5092007;28;20210;-86
2022/10/01 14:15:57;;;;;;;0.40;0.40;;;;;;;;;;5092086;28;20211;-86
2022/10/01 14:16:15;;;;;;;0.77;0.75;;;;;;;;;;5091867;28;20574;-85
2022/10/01 14:18:46;;;;;;;0.75;0.68;;;;;;;;;;5092926;28;20214;-87
2022/10/01 14:21:31;;;;;;;0.55;0.55;;;;;;;;;;5095765;28;20296;-85
2022/10/01 14:24:06;;;;;;;1.48;1.15;;;;;;;;;;5095579;28;20307;-86
2022/10/01 14:26:40;;;;;;;2.70;0.88;;;;;;;;;;5096091;28;20184;-85
2022/10/01 14:29:20;;;;;;;0.80;0.80;;;;;;;;;;5095425;28;20199;-84
2022/10/01 14:31:57;;;;;;;1.15;1.05;;;;;;;;;;5096272;28;20192;-84
2022/10/01 14:34:40;;;;;;;0.98;0.98;;;;;;;;;;5096560;28;20711;-85
2022/10/01 14:37:08;;;;;;;1.08;1.08;;;;;;;;;;5096167;28;20668;-85
2022/10/01 14:39:35;;;;;;;0.80;0.80;;;;;;;;;;5096533;28;20291;-83
2022/10/01 14:42:10;;;;;;;1.10;1.10;;;;;;;;;;5096528;28;20287;-84
2022/10/01 14:44:40;;;;;;;4.43;3.50;;;;;;;;;;5095678;28;20225;-84
2022/10/01 14:47:19;;;;;;;2.22;1.73;;;;;;;;;;5095729;28;20204;-84
2022/10/01 14:49:49;;;;;;;2.20;2.00;;;;;;;;;;5096940;28;20288;-85
2022/10/01 14:52:23;;;;;;;3.83;3.50;;;;;;;;;;5096064;28;20632;-85
2022/10/01 14:54:57;;;;;;;2.40;2.15;;;;;;;;;;5095866;28;20264;-84
2022/10/01 14:57:30;;;;;;;2.17;1.98;;;;;;;;;;5095689;28;20344;-85
2022/10/01 14:59:59;;;;;;;1.30;1.20;;;;;;;;;;5095893;28;20291;-85
2022/10/01 15:02:27;;;;;;;3.47;2.45;;;;;;;;;;5095863;28;20196;-85
2022/10/01 15:04:58;;;;;;;4.03;3.47;;;;;;;;;;5095818;28;20314;-84
2022/10/01 15:07:32;;;;;;;4.68;3.67;;;;;;;;;;5095317;28;20657;-83
2022/10/01 15:10:07;;;;;;;2.58;2.22;;;;;;;;;;5094728;28;20320;-83
2022/10/01 15:12:39;;;;;;;3.13;1.92;;;;;;;;;;5094988;28;20195;-84
2022/10/01 15:15:20;;;;;;;2.65;1.30;;;;;;;;;;5094637;28;20232;-84
2022/10/01 15:17:48;;;;;;;5.28;1.63;;;;;;;;;;5094595;28;20283;-85
2022/10/01 15:20:18;;;;;;;1.77;1.45;;;;;;;;;;5094334;28;20291;-85
2022/10/01 15:22:47;;;;;;;1.65;1.10;;;;;;;;;;5094382;28;20247;-85